sensor_id;sensor_type;location;lat;lon;timestamp;pressure;altitude;pressure_sealevel;temperature;humidity
73457;BME280;61691;53.072;6.582;2023-04-05T00:02:10;102612.47;;;2.41;62.86
73457;BME280;61691;53.072;6.582;2023-04-05T00:04:39;102617.59;;;2.47;62.48
73457;BME280;61691;53.072;6.582;2023-04-05T00:07:16;102609.97;;;2.38;62.74
73457;BME280;61691;53.072;6.582;2023-04-05T00:09:44;102607.31;;;2.40;63.07
73457;BME280;61691;53.072;6.582;2023-04-05T00:12:12;102580.63;;;2.25;62.81
73457;BME280;61691;53.072;6.582;2023-04-05T00:14:38;102578.06;;;2.24;62.96
73457;BME280;61691;53.072;6.582;2023-04-05T00:17:06;102602.34;;;2.29;62.98
73457;BME280;61691;53.072;6.582;2023-04-05T00:19:34;102571.53;;;2.05;62.75
73457;BME280;61691;53.072;6.582;2023-04-05T00:22:03;102583.50;;;2.15;62.89
73457;BME280;61691;53.072;6.582;2023-04-05T00:24:30;102582.78;;;2.10;62.90
73457;BME280;61691;53.072;6.582;2023-04-05T00:26:59;102569.81;;;2.04;63.21
73457;BME280;61691;53.072;6.582;2023-04-05T00:29:27;102592.31;;;2.11;62.96
73457;BME280;61691;53.072;6.582;2023-04-05T00:31:54;102570.88;;;1.97;63.21
73457;BME280;61691;53.072;6.582;2023-04-05T00:34:21;102554.59;;;1.85;63.44
73457;BME280;61691;53.072;6.582;2023-04-05T00:36:48;102510.00;;;1.56;63.72
73457;BME280;61691;53.072;6.582;2023-04-05T00:39:15;102590.84;;;2.01;63.36
73457;BME280;61691;53.072;6.582;2023-04-05T00:41:41;102587.53;;;1.92;63.64
73457;BME280;61691;53.072;6.582;2023-04-05T00:44:13;102577.16;;;1.89;63.37
73457;BME280;61691;53.072;6.582;2023-04-05T00:46:40;102581.47;;;1.92;63.82
73457;BME280;61691;53.072;6.582;2023-04-05T00:49:07;102575.44;;;1.88;63.52
73457;BME280;61691;53.072;6.582;2023-04-05T00:51:35;102572.81;;;1.88;63.95
73457;BME280;61691;53.072;6.582;2023-04-05T00:54:03;102573.63;;;1.90;63.79
73457;BME280;61691;53.072;6.582;2023-04-05T00:56:31;102531.69;;;1.60;64.24
73457;BME280;61691;53.072;6.582;2023-04-05T00:58:58;102560.03;;;1.76;63.92
73457;BME280;61691;53.072;6.582;2023-04-05T01:01:26;102551.53;;;1.68;64.05
73457;BME280;61691;53.072;6.582;2023-04-05T01:03:58;102565.22;;;1.79;64.25
73457;BME280;61691;53.072;6.582;2023-04-05T01:06:46;102567.00;;;1.77;64.26
73457;BME280;61691;53.072;6.582;2023-04-05T01:09:44;102543.00;;;1.60;64.09
73457;BME280;61691;53.072;6.582;2023-04-05T01:12:17;102563.69;;;1.69;64.14
73457;BME280;61691;53.072;6.582;2023-04-05T01:14:50;102565.47;;;1.67;64.45
73457;BME280;61691;53.072;6.582;2023-04-05T01:17:19;102536.19;;;1.53;64.14
73457;BME280;61691;53.072;6.582;2023-04-05T01:19:53;102548.31;;;1.57;64.27
73457;BME280;61691;53.072;6.582;2023-04-05T01:31:06;102531.41;;;1.35;64.37
73457;BME280;61691;53.072;6.582;2023-04-05T01:33:40;102557.31;;;1.44;64.87
73457;BME280;61691;53.072;6.582;2023-04-05T01:36:34;102528.88;;;1.30;65.00
73457;BME280;61691;53.072;6.582;2023-04-05T01:39:04;102557.38;;;1.41;65.08
73457;BME280;61691;53.072;6.582;2023-04-05T01:41:31;102541.78;;;1.36;64.55
73457;BME280;61691;53.072;6.582;2023-04-05T01:43:58;102547.84;;;1.38;64.41
73457;BME280;61691;53.072;6.582;2023-04-05T01:46:24;102547.13;;;1.32;64.81
73457;BME280;61691;53.072;6.582;2023-04-05T01:48:51;102522.97;;;1.21;65.03
73457;BME280;61691;53.072;6.582;2023-04-05T01:51:18;102522.22;;;1.17;64.76
73457;BME280;61691;53.072;6.582;2023-04-05T01:53:46;102509.31;;;1.09;65.44
73457;BME280;61691;53.072;6.582;2023-04-05T01:56:13;102529.94;;;1.22;64.96
73457;BME280;61691;53.072;6.582;2023-04-05T01:58:39;102504.22;;;1.03;65.36
73457;BME280;61691;53.072;6.582;2023-04-05T02:01:06;102516.28;;;1.09;65.47
73457;BME280;61691;53.072;6.582;2023-04-05T02:03:33;102440.69;;;0.63;65.29
73457;BME280;61691;53.072;6.582;2023-04-05T02:05:59;102520.69;;;1.07;65.54
73457;BME280;61691;53.072;6.582;2023-04-05T02:08:26;102502.66;;;0.96;65.68
73457;BME280;61691;53.072;6.582;2023-04-05T02:10:53;102501.81;;;0.94;65.69
73457;BME280;61691;53.072;6.582;2023-04-05T02:13:20;102519.94;;;1.00;65.48
73457;BME280;61691;53.072;6.582;2023-04-05T02:15:51;102532.00;;;1.07;65.69
73457;BME280;61691;53.072;6.582;2023-04-05T02:18:17;102518.19;;;1.02;65.66
73457;BME280;61691;53.072;6.582;2023-04-05T02:20:49;102476.91;;;0.78;66.19
73457;BME280;61691;53.072;6.582;2023-04-05T02:23:19;102493.97;;;0.94;65.80
73457;BME280;61691;53.072;6.582;2023-04-05T02:25:46;102511.94;;;1.08;66.07
73457;BME280;61691;53.072;6.582;2023-04-05T02:28:12;102510.25;;;1.05;66.00
73457;BME280;61691;53.072;6.582;2023-04-05T02:30:40;102516.41;;;1.04;66.04
73457;BME280;61691;53.072;6.582;2023-04-05T02:33:07;102501.88;;;0.91;66.03
73457;BME280;61691;53.072;6.582;2023-04-05T02:35:35;102501.78;;;0.96;66.00
73457;BME280;61691;53.072;6.582;2023-04-05T02:38:05;102503.50;;;0.97;65.92
73457;BME280;61691;53.072;6.582;2023-04-05T02:40:33;102519.94;;;1.02;66.50
73457;BME280;61691;53.072;6.582;2023-04-05T02:43:00;102496.78;;;0.85;66.42
73457;BME280;61691;53.072;6.582;2023-04-05T02:45:27;102504.56;;;0.88;66.23
73457;BME280;61691;53.072;6.582;2023-04-05T02:47:54;102497.63;;;0.87;66.05
73457;BME280;61691;53.072;6.582;2023-04-05T02:50:21;102495.94;;;0.83;66.63
73457;BME280;61691;53.072;6.582;2023-04-05T02:52:50;102516.72;;;0.89;66.60
73457;BME280;61691;53.072;6.582;2023-04-05T02:55:17;102497.81;;;0.78;66.44
73457;BME280;61691;53.072;6.582;2023-04-05T02:57:43;102479.72;;;0.69;66.80
73457;BME280;61691;53.072;6.582;2023-04-05T03:00:12;102501.28;;;0.77;66.43
73457;BME280;61691;53.072;6.582;2023-04-05T03:02:39;102472.88;;;0.63;66.47
73457;BME280;61691;53.072;6.582;2023-04-05T03:05:07;102480.56;;;0.71;66.82
73457;BME280;61691;53.072;6.582;2023-04-05T03:07:34;102490.94;;;0.74;66.71
73457;BME280;61691;53.072;6.582;2023-04-05T03:10:02;102498.69;;;0.77;66.66
73457;BME280;61691;53.072;6.582;2023-04-05T03:12:28;102499.69;;;0.70;66.96
73457;BME280;61691;53.072;6.582;2023-04-05T03:14:55;102487.75;;;0.60;67.08
73457;BME280;61691;53.072;6.582;2023-04-05T03:17:22;102511.88;;;0.71;66.81
73457;BME280;61691;53.072;6.582;2023-04-05T03:19:48;102492.88;;;0.63;66.87
73457;BME280;61691;53.072;6.582;2023-04-05T03:22:15;102481.69;;;0.59;67.22
73457;BME280;61691;53.072;6.582;2023-04-05T03:24:42;102500.72;;;0.63;67.46
73457;BME280;61691;53.072;6.582;2023-04-05T03:27:08;102471.53;;;0.44;66.90
73457;BME280;61691;53.072;6.582;2023-04-05T03:29:35;102496.47;;;0.59;67.53
73457;BME280;61691;53.072;6.582;2023-04-05T03:32:02;102492.13;;;0.59;66.99
73457;BME280;61691;53.072;6.582;2023-04-05T03:34:28;102463.75;;;0.43;67.41
73457;BME280;61691;53.072;6.582;2023-04-05T03:36:55;102496.34;;;0.65;67.46
73457;BME280;61691;53.072;6.582;2023-04-05T03:39:22;102489.53;;;0.58;67.62
73457;BME280;61691;53.072;6.582;2023-04-05T03:41:48;102483.50;;;0.53;67.31
73457;BME280;61691;53.072;6.582;2023-04-05T03:44:16;102495.66;;;0.55;67.68
73457;BME280;61691;53.072;6.582;2023-04-05T03:46:42;102472.34;;;0.46;67.48
73457;BME280;61691;53.072;6.582;2023-04-05T03:49:09;102471.53;;;0.44;67.87
73457;BME280;61691;53.072;6.582;2023-04-05T03:51:36;102453.47;;;0.33;67.70
73457;BME280;61691;53.072;6.582;2023-04-05T03:54:03;102450.00;;;0.33;67.97
73457;BME280;61691;53.072;6.582;2023-04-05T03:56:29;102454.28;;;0.37;67.76
73457;BME280;61691;53.072;6.582;2023-04-05T03:58:57;102473.19;;;0.48;67.72
73457;BME280;61691;53.072;6.582;2023-04-05T04:01:24;102472.34;;;0.46;68.06
73457;BME280;61691;53.072;6.582;2023-04-05T04:03:51;102438.75;;;0.31;67.92
73457;BME280;61691;53.072;6.582;2023-04-05T04:06:17;102447.25;;;0.41;67.91
73457;BME280;61691;53.072;6.582;2023-04-05T04:08:45;102457.66;;;0.42;67.89
73457;BME280;61691;53.072;6.582;2023-04-05T04:11:11;102461.88;;;0.48;67.98
73457;BME280;61691;53.072;6.582;2023-04-05T04:13:38;102440.47;;;0.32;68.32
73457;BME280;61691;53.072;6.582;2023-04-05T04:16:05;102457.66;;;0.42;67.90
73457;BME280;61691;53.072;6.582;2023-04-05T04:18:32;102465.47;;;0.44;68.04
73457;BME280;61691;53.072;6.582;2023-04-05T04:21:01;102444.91;;;0.28;68.10
73457;BME280;61691;53.072;6.582;2023-04-05T04:23:32;102463.88;;;0.36;68.37
73457;BME280;61691;53.072;6.582;2023-04-05T04:26:00;102460.44;;;0.33;68.36
73457;BME280;61691;53.072;6.582;2023-04-05T04:28:28;102463.03;;;0.34;68.71
73457;BME280;61691;53.072;6.582;2023-04-05T04:30:54;102444.94;;;0.25;68.82
73457;BME280;61691;53.072;6.582;2023-04-05T04:33:21;102460.41;;;0.34;68.53
73457;BME280;61691;53.072;6.582;2023-04-05T04:35:48;102436.41;;;0.17;68.47
73457;BME280;61691;53.072;6.582;2023-04-05T04:38:15;102460.47;;;0.31;68.84
73457;BME280;61691;53.072;6.582;2023-04-05T04:40:44;102452.78;;;0.24;69.07
73457;BME280;61691;53.072;6.582;2023-04-05T04:43:16;102400.34;;;-0.07;68.88
73457;BME280;61691;53.072;6.582;2023-04-05T04:45:47;102439.09;;;0.13;68.98
73457;BME280;61691;53.072;6.582;2023-04-05T04:48:15;102451.13;;;0.21;69.01
73457;BME280;61691;53.072;6.582;2023-04-05T04:50:43;102462.25;;;0.29;68.67
73457;BME280;61691;53.072;6.582;2023-04-05T04:53:10;102465.75;;;0.28;69.03
73457;BME280;61691;53.072;6.582;2023-04-05T04:55:37;102462.31;;;0.26;69.22
73457;BME280;61691;53.072;6.582;2023-04-05T04:58:04;102445.09;;;0.16;68.82
73457;BME280;61691;53.072;6.582;2023-04-05T05:00:38;102466.66;;;0.27;69.23
73457;BME280;61691;53.072;6.582;2023-04-05T05:03:06;102464.94;;;0.25;68.93
73457;BME280;61691;53.072;6.582;2023-04-05T05:05:34;102426.22;;;0.05;69.03
73457;BME280;61691;53.072;6.582;2023-04-05T05:08:00;102464.03;;;0.27;69.49
73457;BME280;61691;53.072;6.582;2023-04-05T05:10:27;102456.28;;;0.23;69.46
73457;BME280;61691;53.072;6.582;2023-04-05T05:12:54;102449.44;;;0.17;69.31
73457;BME280;61691;53.072;6.582;2023-04-05T05:15:21;102454.66;;;0.17;69.48
73457;BME280;61691;53.072;6.582;2023-04-05T05:17:47;102449.41;;;0.19;69.64
73457;BME280;61691;53.072;6.582;2023-04-05T05:20:18;102445.94;;;0.18;69.08
73457;BME280;61691;53.072;6.582;2023-04-05T05:22:45;102420.94;;;0.08;69.81
73457;BME280;61691;53.072;6.582;2023-04-05T05:25:12;102453.59;;;0.27;69.33
73457;BME280;61691;53.072;6.582;2023-04-05T05:27:39;102451.84;;;0.29;69.67
73457;BME280;61691;53.072;6.582;2023-04-05T05:30:06;102429.25;;;0.28;69.42
73457;BME280;61691;53.072;6.582;2023-04-05T05:32:33;102433.44;;;0.37;69.67
73457;BME280;61691;53.072;6.582;2023-04-05T05:35:00;102433.31;;;0.42;69.68
73457;BME280;61691;53.072;6.582;2023-04-05T05:37:30;102464.09;;;0.67;69.85
73457;BME280;61691;53.072;6.582;2023-04-05T05:39:58;102463.03;;;0.76;69.86
73457;BME280;61691;53.072;6.582;2023-04-05T05:42:25;102442.22;;;0.73;69.77
73457;BME280;61691;53.072;6.582;2023-04-05T05:44:52;102436.88;;;0.79;69.96
73457;BME280;61691;53.072;6.582;2023-04-05T05:47:19;102436.59;;;0.91;69.48
73457;BME280;61691;53.072;6.582;2023-04-05T05:49:47;102439.13;;;0.96;69.66
73457;BME280;61691;53.072;6.582;2023-04-05T05:52:17;102433.81;;;0.99;70.05
73457;BME280;61691;53.072;6.582;2023-04-05T05:54:47;102449.78;;;1.24;69.72
73457;BME280;61691;53.072;6.582;2023-04-05T05:57:14;102464.13;;;1.43;69.28
73457;BME280;61691;53.072;6.582;2023-04-05T05:59:41;102419.84;;;1.37;69.75
73457;BME280;61691;53.072;6.582;2023-04-05T06:02:08;102414.56;;;1.40;69.48
73457;BME280;61691;53.072;6.582;2023-04-05T06:04:35;102419.44;;;1.53;69.78
73457;BME280;61691;53.072;6.582;2023-04-05T06:07:03;102438.06;;;1.75;69.24
73457;BME280;61691;53.072;6.582;2023-04-05T06:09:30;102386.41;;;1.51;69.73
73457;BME280;61691;53.072;6.582;2023-04-05T06:11:59;102462.78;;;1.96;69.25
73457;BME280;61691;53.072;6.582;2023-04-05T06:14:26;102461.09;;;1.95;69.23
73457;BME280;61691;53.072;6.582;2023-04-05T06:16:55;102434.09;;;1.94;69.24
73457;BME280;61691;53.072;6.582;2023-04-05T06:19:22;102449.44;;;2.07;68.95
73457;BME280;61691;53.072;6.582;2023-04-05T06:21:49;102458.78;;;2.17;69.39
73457;BME280;61691;53.072;6.582;2023-04-05T06:24:16;102459.41;;;2.25;69.25
73457;BME280;61691;53.072;6.582;2023-04-05T06:26:42;102464.38;;;2.34;69.42
73457;BME280;61691;53.072;6.582;2023-04-05T06:29:09;102454.88;;;2.31;69.35
73457;BME280;61691;53.072;6.582;2023-04-05T06:31:36;102464.22;;;2.40;69.12
73457;BME280;61691;53.072;6.582;2023-04-05T06:34:03;102456.31;;;2.42;69.04
73457;BME280;61691;53.072;6.582;2023-04-05T06:36:30;102468.06;;;2.58;68.80
73457;BME280;61691;53.072;6.582;2023-04-05T06:39:00;102459.13;;;2.65;68.77
73457;BME280;61691;53.072;6.582;2023-04-05T06:41:26;102469.16;;;2.80;69.17
73457;BME280;61691;53.072;6.582;2023-04-05T06:43:54;102400.38;;;2.46;68.73
73457;BME280;61691;53.072;6.582;2023-04-05T06:46:21;102473.34;;;2.86;68.66
73457;BME280;61691;53.072;6.582;2023-04-05T06:48:48;102463.06;;;2.80;68.60
73457;BME280;61691;53.072;6.582;2023-04-05T06:51:15;102452.59;;;2.80;68.29
73457;BME280;61691;53.072;6.582;2023-04-05T06:53:42;102455.94;;;2.85;68.17
73457;BME280;61691;53.072;6.582;2023-04-05T06:56:09;102433.47;;;2.78;68.44
73457;BME280;61691;53.072;6.582;2023-04-05T06:58:36;102476.16;;;3.09;68.50
73457;BME280;61691;53.072;6.582;2023-04-05T07:01:04;102467.31;;;3.13;68.31
73457;BME280;61691;53.072;6.582;2023-04-05T07:03:32;102466.16;;;3.22;67.94
73457;BME280;61691;53.072;6.582;2023-04-05T07:05:59;102430.63;;;3.13;68.33
73457;BME280;61691;53.072;6.582;2023-04-05T07:08:28;102475.44;;;3.60;68.57
73457;BME280;61691;53.072;6.582;2023-04-05T07:10:54;102451.66;;;4.15;70.00
73457;BME280;61691;53.072;6.582;2023-04-05T07:13:23;102367.63;;;4.85;70.04
73457;BME280;61691;53.072;6.582;2023-04-05T07:15:51;102474.72;;;6.69;68.08
73457;BME280;61691;53.072;6.582;2023-04-05T07:18:18;102467.59;;;7.80;67.17
73457;BME280;61691;53.072;6.582;2023-04-05T07:20:47;102474.47;;;9.00;65.37
73457;BME280;61691;53.072;6.582;2023-04-05T07:23:19;102457.88;;;10.03;63.58
73457;BME280;61691;53.072;6.582;2023-04-05T07:25:48;102455.69;;;10.82;62.13
73457;BME280;61691;53.072;6.582;2023-04-05T07:28:15;102466.53;;;11.60;59.63
73457;BME280;61691;53.072;6.582;2023-04-05T07:30:41;102469.56;;;12.33;58.04
73457;BME280;61691;53.072;6.582;2023-04-05T07:33:08;102443.06;;;12.69;55.62
73457;BME280;61691;53.072;6.582;2023-04-05T07:35:35;102456.41;;;13.06;51.82
73457;BME280;61691;53.072;6.582;2023-04-05T07:38:02;102474.56;;;12.50;48.86
73457;BME280;61691;53.072;6.582;2023-04-05T07:40:29;102461.56;;;11.55;47.84
73457;BME280;61691;53.072;6.582;2023-04-05T07:42:55;102467.72;;;10.88;47.65
73457;BME280;61691;53.072;6.582;2023-04-05T07:45:22;102477.34;;;10.18;47.47
73457;BME280;61691;53.072;6.582;2023-04-05T07:47:49;102474.84;;;9.55;48.18
73457;BME280;61691;53.072;6.582;2023-04-05T07:50:16;102460.53;;;9.12;48.47
73457;BME280;61691;53.072;6.582;2023-04-05T07:52:42;102469.31;;;8.81;49.02
73457;BME280;61691;53.072;6.582;2023-04-05T07:55:09;102427.78;;;8.35;48.91
73457;BME280;61691;53.072;6.582;2023-04-05T07:57:36;102466.66;;;8.33;49.50
73457;BME280;61691;53.072;6.582;2023-04-05T08:00:04;102436.59;;;8.01;50.09
73457;BME280;61691;53.072;6.582;2023-04-05T08:02:36;102453.91;;;8.06;50.39
73457;BME280;61691;53.072;6.582;2023-04-05T08:05:03;102443.97;;;7.94;50.28
73457;BME280;61691;53.072;6.582;2023-04-05T08:07:31;102415.94;;;7.74;50.34
73457;BME280;61691;53.072;6.582;2023-04-05T08:09:57;102422.84;;;7.77;50.59
73457;BME280;61691;53.072;6.582;2023-04-05T08:12:26;102417.25;;;7.83;50.82
73457;BME280;61691;53.072;6.582;2023-04-05T08:14:53;102450.78;;;7.98;50.44
73457;BME280;61691;53.072;6.582;2023-04-05T08:17:19;102432.47;;;7.78;50.41
73457;BME280;61691;53.072;6.582;2023-04-05T08:19:46;102439.28;;;7.82;50.39
73457;BME280;61691;53.072;6.582;2023-04-05T08:22:14;102435.09;;;7.61;49.45
73457;BME280;61691;53.072;6.582;2023-04-05T08:24:43;102419.59;;;7.55;49.98
73457;BME280;61691;53.072;6.582;2023-04-05T08:27:10;102409.81;;;7.57;49.99
73457;BME280;61691;53.072;6.582;2023-04-05T08:29:37;102419.13;;;7.64;50.02
73457;BME280;61691;53.072;6.582;2023-04-05T08:32:04;102428.03;;;7.61;49.62
73457;BME280;61691;53.072;6.582;2023-04-05T08:34:31;102423.78;;;7.59;49.92
73457;BME280;61691;53.072;6.582;2023-04-05T08:40:42;102422.47;;;7.50;49.33
73457;BME280;61691;53.072;6.582;2023-04-05T08:45:49;102381.22;;;7.13;49.11
73457;BME280;61691;53.072;6.582;2023-04-05T08:48:18;102432.28;;;7.47;49.50
73457;BME280;61691;53.072;6.582;2023-04-05T08:50:52;102416.00;;;7.38;49.76
73457;BME280;61691;53.072;6.582;2023-04-05T08:53:19;102380.59;;;7.25;50.23
73457;BME280;61691;53.072;6.582;2023-04-05T08:55:50;102390.16;;;7.45;49.58
73457;BME280;61691;53.072;6.582;2023-04-05T08:58:20;102436.50;;;7.85;49.39
73457;BME280;61691;53.072;6.582;2023-04-05T09:00:50;102443.78;;;7.97;49.66
73457;BME280;61691;53.072;6.582;2023-04-05T09:03:20;102421.66;;;8.00;48.92
73457;BME280;61691;53.072;6.582;2023-04-05T09:05:49;102436.72;;;8.15;48.23
73457;BME280;61691;53.072;6.582;2023-04-05T09:08:16;102402.72;;;7.92;46.10
73457;BME280;61691;53.072;6.582;2023-04-05T09:10:43;102433.69;;;8.23;48.19
73457;BME280;61691;53.072;6.582;2023-04-05T09:13:10;102423.25;;;8.20;47.47
73457;BME280;61691;53.072;6.582;2023-04-05T09:15:37;102409.47;;;8.32;47.01
73457;BME280;61691;53.072;6.582;2023-04-05T09:18:04;102414.84;;;8.46;47.53
73457;BME280;61691;53.072;6.582;2023-04-05T09:20:44;102406.00;;;8.47;46.60
73457;BME280;61691;53.072;6.582;2023-04-05T09:23:12;102404.28;;;8.46;46.14
73457;BME280;61691;53.072;6.582;2023-04-05T09:25:40;102412.81;;;8.51;45.78
73457;BME280;61691;53.072;6.582;2023-04-05T09:28:08;102417.22;;;8.50;46.00
73457;BME280;61691;53.072;6.582;2023-04-05T09:30:35;102419.66;;;8.55;45.53
73457;BME280;61691;53.072;6.582;2023-04-05T09:33:03;102419.72;;;8.53;45.73
73457;BME280;61691;53.072;6.582;2023-04-05T09:35:35;102395.16;;;8.51;45.18
73457;BME280;61691;53.072;6.582;2023-04-05T09:38:03;102410.09;;;8.68;45.22
73457;BME280;61691;53.072;6.582;2023-04-05T09:40:39;102405.84;;;8.81;44.16
73457;BME280;61691;53.072;6.582;2023-04-05T09:43:09;102415.25;;;8.87;45.17
73457;BME280;61691;53.072;6.582;2023-04-05T09:45:40;102406.03;;;8.78;44.29
73457;BME280;61691;53.072;6.582;2023-04-05T09:48:08;102399.13;;;8.76;44.40
73457;BME280;61691;53.072;6.582;2023-04-05T09:50:35;102410.97;;;8.84;43.88
73457;BME280;61691;53.072;6.582;2023-04-05T09:53:05;102402.03;;;8.87;44.26
73457;BME280;61691;53.072;6.582;2023-04-05T09:55:36;102410.97;;;8.84;42.68
73457;BME280;61691;53.072;6.582;2023-04-05T09:58:03;102367.31;;;8.62;42.56
73457;BME280;61691;53.072;6.582;2023-04-05T10:00:29;102377.19;;;8.58;42.79
73457;BME280;61691;53.072;6.582;2023-04-05T10:02:58;102397.31;;;8.76;43.06
73457;BME280;61691;53.072;6.582;2023-04-05T10:05:27;102403.63;;;8.89;43.52
73457;BME280;61691;53.072;6.582;2023-04-05T10:07:54;102402.53;;;8.93;42.82
73457;BME280;61691;53.072;6.582;2023-04-05T10:10:22;102403.91;;;9.01;43.02
73457;BME280;61691;53.072;6.582;2023-04-05T10:12:49;102388.97;;;9.00;41.34
73457;BME280;61691;53.072;6.582;2023-04-05T10:15:16;102389.97;;;9.13;41.67
73457;BME280;61691;53.072;6.582;2023-04-05T10:17:52;102394.16;;;9.17;41.73
73457;BME280;61691;53.072;6.582;2023-04-05T10:20:26;102380.16;;;9.15;41.60
73457;BME280;61691;53.072;6.582;2023-04-05T10:22:59;102402.72;;;9.36;41.25
73457;BME280;61691;53.072;6.582;2023-04-05T10:28:34;102388.66;;;9.65;40.67
73457;BME280;61691;53.072;6.582;2023-04-05T10:31:37;102387.91;;;9.78;39.73
73457;BME280;61691;53.072;6.582;2023-04-05T10:34:09;102382.91;;;9.73;39.60
73457;BME280;61691;53.072;6.582;2023-04-05T10:36:59;102391.72;;;9.88;39.35
73457;BME280;61691;53.072;6.582;2023-04-05T10:41:59;102355.03;;;9.96;39.92
73457;BME280;61691;53.072;6.582;2023-04-05T10:44:29;102376.94;;;10.28;39.97
73457;BME280;61691;53.072;6.582;2023-04-05T10:46:58;102352.13;;;10.29;39.08
73457;BME280;61691;53.072;6.582;2023-04-05T10:49:38;102364.97;;;10.49;39.29
73457;BME280;61691;53.072;6.582;2023-04-05T10:52:05;102372.44;;;10.57;39.03
73457;BME280;61691;53.072;6.582;2023-04-05T10:54:33;102351.63;;;10.51;38.06
73457;BME280;61691;53.072;6.582;2023-04-05T10:57:04;102345.75;;;10.45;38.27
73457;BME280;61691;53.072;6.582;2023-04-05T10:59:40;102348.91;;;10.52;38.29
73457;BME280;61691;53.072;6.582;2023-04-05T11:02:07;102366.38;;;10.55;37.50
73457;BME280;61691;53.072;6.582;2023-04-05T11:04:35;102368.69;;;10.32;36.47
73457;BME280;61691;53.072;6.582;2023-04-05T11:07:18;102362.44;;;10.19;36.82
73457;BME280;61691;53.072;6.582;2023-04-05T11:09:57;102365.38;;;10.15;37.25
73457;BME280;61691;53.072;6.582;2023-04-05T11:15:28;102348.06;;;10.37;37.76
73457;BME280;61691;53.072;6.582;2023-04-05T11:18:11;102348.22;;;10.48;37.65
73457;BME280;61691;53.072;6.582;2023-04-05T11:23:08;102332.50;;;10.60;37.84
73457;BME280;61691;53.072;6.582;2023-04-05T11:25:38;102338.13;;;10.68;37.47
73457;BME280;61691;53.072;6.582;2023-04-05T11:28:08;102306.66;;;10.49;37.38
73457;BME280;61691;53.072;6.582;2023-04-05T11:30:47;102335.66;;;10.79;37.01
73457;BME280;61691;53.072;6.582;2023-04-05T11:36:07;102296.91;;;10.50;37.06
73457;BME280;61691;53.072;6.582;2023-04-05T11:38:35;102295.47;;;10.58;36.92
73457;BME280;61691;53.072;6.582;2023-04-05T11:41:15;102320.41;;;10.82;36.73
73457;BME280;61691;53.072;6.582;2023-04-05T11:43:46;102318.03;;;10.78;36.00
73457;BME280;61691;53.072;6.582;2023-04-05T11:46:13;102315.97;;;10.69;35.71
73457;BME280;61691;53.072;6.582;2023-04-05T11:48:49;102318.44;;;10.72;36.41
73457;BME280;61691;53.072;6.582;2023-04-05T11:51:19;102316.69;;;10.85;36.59
73457;BME280;61691;53.072;6.582;2023-04-05T11:53:49;102308.81;;;10.83;36.31
73457;BME280;61691;53.072;6.582;2023-04-05T11:56:16;102294.69;;;10.83;36.02
73457;BME280;61691;53.072;6.582;2023-04-05T11:58:44;102311.59;;;10.82;35.62
73457;BME280;61691;53.072;6.582;2023-04-05T12:01:11;102310.88;;;10.66;34.52
73457;BME280;61691;53.072;6.582;2023-04-05T13:12:19;102217.13;;;10.53;35.47
73457;BME280;61691;53.072;6.582;2023-04-05T13:14:46;102231.56;;;10.48;36.23
73457;BME280;61691;53.072;6.582;2023-04-05T13:17:12;102244.56;;;10.66;35.00
73457;BME280;61691;53.072;6.582;2023-04-05T13:19:39;102198.72;;;10.51;34.80
73457;BME280;61691;53.072;6.582;2023-04-05T13:22:07;102223.56;;;10.75;34.93
73457;BME280;61691;53.072;6.582;2023-04-05T13:24:34;102210.03;;;10.80;34.67
73457;BME280;61691;53.072;6.582;2023-04-05T13:27:01;102206.34;;;10.82;34.56
73457;BME280;61691;53.072;6.582;2023-04-05T13:29:27;102206.78;;;10.89;33.90
73457;BME280;61691;53.072;6.582;2023-04-05T13:31:54;102210.47;;;10.86;32.98
73457;BME280;61691;53.072;6.582;2023-04-05T13:34:21;102207.88;;;10.60;33.16
73457;BME280;61691;53.072;6.582;2023-04-05T13:36:48;102204.88;;;10.52;33.22
73457;BME280;61691;53.072;6.582;2023-04-05T13:39:15;102210.16;;;10.52;33.51
73457;BME280;61691;53.072;6.582;2023-04-05T13:41:41;102165.94;;;10.25;33.48
73457;BME280;61691;53.072;6.582;2023-04-05T13:44:08;102191.00;;;10.34;33.90
73457;BME280;61691;53.072;6.582;2023-04-05T13:46:35;102199.09;;;10.45;34.38
73457;BME280;61691;53.072;6.582;2023-04-05T13:49:02;102180.44;;;10.46;34.62
73457;BME280;61691;53.072;6.582;2023-04-05T13:51:29;102191.31;;;10.69;34.65
73457;BME280;61691;53.072;6.582;2023-04-05T13:53:59;102185.81;;;10.72;34.58
73457;BME280;61691;53.072;6.582;2023-04-05T13:56:26;102187.34;;;10.89;34.40
73457;BME280;61691;53.072;6.582;2023-04-05T13:58:53;102172.28;;;10.89;33.72
73457;BME280;61691;53.072;6.582;2023-04-05T14:01:19;102171.63;;;10.98;34.13
73457;BME280;61691;53.072;6.582;2023-04-05T14:03:46;102150.41;;;10.85;34.30
73457;BME280;61691;53.072;6.582;2023-04-05T14:06:13;102130.47;;;10.80;33.80
73457;BME280;61691;53.072;6.582;2023-04-05T14:08:40;102151.25;;;10.86;32.98
73457;BME280;61691;53.072;6.582;2023-04-05T14:11:07;102137.41;;;10.68;32.78
73457;BME280;61691;53.072;6.582;2023-04-05T14:13:34;102160.25;;;10.71;33.13
73457;BME280;61691;53.072;6.582;2023-04-05T14:16:01;102161.75;;;10.75;33.11
73457;BME280;61691;53.072;6.582;2023-04-05T14:18:27;102129.97;;;10.48;33.14
73457;BME280;61691;53.072;6.582;2023-04-05T14:20:54;102118.94;;;10.41;33.16
73457;BME280;61691;53.072;6.582;2023-04-05T14:23:22;102161.41;;;10.67;33.06
73457;BME280;61691;53.072;6.582;2023-04-05T14:25:49;102140.41;;;10.64;33.11
73457;BME280;61691;53.072;6.582;2023-04-05T14:28:15;102136.38;;;10.58;32.88
73457;BME280;61691;53.072;6.582;2023-04-05T14:30:42;102142.72;;;10.56;32.83
73457;BME280;61691;53.072;6.582;2023-04-05T14:33:09;102146.53;;;10.52;33.97
73457;BME280;61691;53.072;6.582;2023-04-05T14:35:36;102130.22;;;10.58;33.54
73457;BME280;61691;53.072;6.582;2023-04-05T14:38:02;102145.94;;;10.73;34.44
73457;BME280;61691;53.072;6.582;2023-04-05T14:40:29;102136.19;;;10.86;33.96
73457;BME280;61691;53.072;6.582;2023-04-05T14:42:56;102140.03;;;10.82;33.59